Aeroporto :
LOGIN :

Iscrizione | Disclaimer

   EN    FR    IT 

 










Sommario :    VFR   VFR Marginale   IFR   IFR Intensivo   IFR Molto Intensivo
Visibilità : 
Base nubi : 
>= 8 km
>= 3000ft
5 / 8 km
1000 / 3000 ft
1500m / 5 km
500 / 1000 ft
800 / 1500m
200 / 500 ft
< 800m
< 200 ft
Simboli :   Temporali  Nebbia  Neve Forte  Precipitazioni Forti  Vento > 20 kt
SIGMETs :   Varie  Temporali  Ghiacco  Turbolenza  Onda orograficha  Ceneri Vulcaniche






- Altitudine del aeroporto : 12 ft
- Codice IATA : NCE


LFMN - Nice

ULTIMO METAR :
  • 070730Z 34010KT CAVOK 06/M03 Q1018 NOSIG

METARs OBSOLETI :
  • 070700Z 33013KT CAVOK 05/M03 Q1018 NOSIG
  • 070630Z 33013KT CAVOK 05/M03 Q1018 NOSIG
  • 070600Z 33015KT CAVOK 06/M03 Q1017 NOSIG
  • 070530Z 33013KT CAVOK 06/M03 Q1017 NOSIG
  • 070500Z 34011KT CAVOK 05/M03 Q1017 NOSIG
  • 070430Z 34010KT CAVOK 06/M03 Q1017 NOSIG
  • 070400Z 34008KT CAVOK 06/M03 Q1017 NOSIG
  • 070330Z 33012KT CAVOK 06/M03 Q1017 NOSIG
  • 070300Z 33010KT CAVOK 06/M03 Q1017 NOSIG

TAF TAF LFMN
Valido dal 07 a 03 ore il 08 a 09 ore UTC


070200Z 0703/0809 34010KT CAVOK
BECMG 0709/0711 VRB05KT
BECMG 0717/0719 34010KT
BECMG 0800/0802 BKN020
TEMPO 0802/0804 SHRA
BECMG 0804/0806 04015KT RA
TEMPO 0808/0809 08020G30KT
ATIS : +33 4 93 17 21 16



MetMap, La meteo Aeronautica in un colpo d'occhio ! - Copyright ORBIFLY Dicembre 2007 - Disclaimer

ORBIFLY MET'MAP TEAM :

Programmazione e sviluppo : Alexandra Zaïnal
Concezione : Baudouin d'Aumeries
Supporto tecnico e logistico : Manuel Goepfert
Aiuto : Marc-Olivier Méhu
Aiuto per la traduzione : Arnaldo La Scala




FONTI E CREDITI :

   NOAA